West Hallock, Illinois
Current Conditions -  °F | °C
As of 4:35 PM on Monday 26 Jan 2015 (Local Time) from KC75 Reporting Station
Haze Haze  
Wind Chill: 22°   Ceiling: 1000
Heat Index: 27°   Visibility: 4mi
Dew Point: 25°   Wind: 5mph
Humidity: 91%   Direction: 170°S
Pressure: 29.86"   Gusts: NA
Location:  40.9686°N, 89.597°W
Report Text: KC75 262235Z AUTO 17004KT 4SM BR OVC010 M03/M04 A2986 RMK AO2 T10271040
Loading
Personal Weather Stations






























Interactive Weather Map New forecast layout! Learn more

10-Day Weather Forecast

Advertisements
Track Severe Weather on mobile